Time;durP1;ratioP1;P1;durP2;ratioP2;P2;SDS_P1;SDS_P2;PMS_P1;PMS_P2;Temp;Humidity;BMP_temperature;BMP_pressure;BME280_temperature;BME280_humidity;BME280_pressure;Samples;Min_cycle;Max_cycle;Signal;HPM_P1;HPM_P2
2023/07/11 00:01:00;;;;;;;6.97;1.70;;;15.40;99.90;;;;;;5077062;28;20044;-49
2023/07/11 00:03:26;;;;;;;7.70;1.80;;;15.30;99.90;;;;;;5076535;28;20436;-46
2023/07/11 00:06:04;;;;;;;6.32;2.03;;;15.40;99.90;;;;;;5058029;28;20048;-47
2023/07/11 00:08:30;;;;;;;5.55;1.73;;;15.40;99.90;;;;;;5077038;28;20043;-48
2023/07/11 00:10:57;;;;;;;7.72;2.33;;;15.50;99.90;;;;;;5058146;28;20066;-48
2023/07/11 00:13:23;;;;;;;6.10;1.88;;;15.30;99.90;;;;;;5076336;28;20040;-48
2023/07/11 00:16:06;;;;;;;7.18;1.60;;;15.40;99.90;;;;;;5075703;28;20089;-48
2023/07/11 00:18:32;;;;;;;6.43;1.58;;;15.40;99.90;;;;;;5075782;28;20044;-49
2023/07/11 00:20:59;;;;;;;7.22;1.80;;;15.60;99.90;;;;;;5074884;28;20395;-48
2023/07/11 00:23:24;;;;;;;5.13;1.70;;;15.50;99.90;;;;;;5074199;28;20040;-49
2023/07/11 00:25:50;;;;;;;5.65;2.13;;;15.60;99.90;;;;;;5075089;28;20039;-49
2023/07/11 00:28:16;;;;;;;5.65;1.73;;;15.50;99.90;;;;;;5074276;28;23280;-48
2023/07/11 00:30:42;;;;;;;4.40;1.60;;;15.70;99.90;;;;;;5076270;28;20040;-52
2023/07/11 00:33:08;;;;;;;5.65;1.50;;;15.70;99.90;;;;;;5075817;28;20505;-52
2023/07/11 00:35:36;;;;;;;11.23;2.22;;;15.70;99.90;;;;;;5074416;28;20039;-48
2023/07/11 00:38:01;;;;;;;8.57;2.10;;;15.60;99.90;;;;;;5073169;28;20040;-51
2023/07/11 00:40:27;;;;;;;6.30;1.95;;;16.60;99.90;;;;;;5075101;28;20288;-52
2023/07/11 00:42:53;;;;;;;4.47;1.75;;;15.60;99.90;;;;;;5073588;28;20122;-48
2023/07/11 00:45:57;;;;;;;7.45;1.80;;;15.60;99.90;;;;;;5074235;28;20086;-51
2023/07/11 00:48:23;;;;;;;5.53;1.50;;;15.60;99.90;;;;;;5074157;28;20044;-50
2023/07/11 00:50:50;;;;;;;8.35;1.80;;;15.50;99.90;;;;;;5056539;28;20047;-52
2023/07/11 00:53:17;;;;;;;4.75;1.75;;;15.60;99.90;;;;;;5074157;28;20589;-50
2023/07/11 00:55:44;;;;;;;3.55;1.52;;;15.60;99.90;;;;;;5073843;28;20128;-51
2023/07/11 00:58:11;;;;;;;6.00;2.20;;;15.60;99.90;;;;;;5073926;28;20127;-52
2023/07/11 01:00:37;;;;;;;8.30;1.70;;;15.50;99.90;;;;;;5073770;28;20056;-52
2023/07/11 01:03:03;;;;;;;4.63;2.03;;;15.60;99.90;;;;;;5075014;28;20101;-51
2023/07/11 01:05:29;;;;;;;4.97;1.55;;;15.50;99.90;;;;;;5074038;28;20039;-52
2023/07/11 01:07:55;;;;;;;7.60;1.75;;;15.70;99.90;;;;;;5073353;28;20043;-50
2023/07/11 01:10:20;;;;;;;6.15;1.70;;;15.60;99.90;;;;;;5073355;28;20043;-52
2023/07/11 01:12:47;;;;;;;8.38;1.67;;;15.70;99.90;;;;;;5074572;28;20388;-51
2023/07/11 01:15:14;;;;;;;6.22;1.63;;;15.60;99.90;;;;;;5073900;28;20052;-49
2023/07/11 01:17:40;;;;;;;5.70;1.60;;;15.60;99.90;;;;;;5074016;28;20098;-48
2023/07/11 01:20:09;;;;;;;5.18;1.75;;;15.70;99.90;;;;;;5073772;28;20809;-52
2023/07/11 01:22:37;;;;;;;11.40;2.50;;;15.70;99.90;;;;;;5039952;28;20474;-52
2023/07/11 01:25:12;;;;;;;5.10;1.67;;;15.80;99.90;;;;;;5074516;28;20557;-50
2023/07/11 01:27:41;;;;;;;6.30;1.58;;;15.90;99.90;;;;;;5055741;28;20633;-51
2023/07/11 01:30:09;;;;;;;5.55;1.63;;;15.80;99.90;;;;;;5074225;28;20044;-52
2023/07/11 01:32:35;;;;;;;7.25;1.83;;;15.90;99.90;;;;;;5076171;28;20075;-51
2023/07/11 01:35:01;;;;;;;4.97;1.70;;;16.00;99.90;;;;;;5074208;28;20416;-52
2023/07/11 01:37:27;;;;;;;5.13;1.52;;;15.80;99.90;;;;;;5074306;28;20044;-52
2023/07/11 01:39:52;;;;;;;5.13;1.50;;;15.90;99.90;;;;;;5074213;28;20051;-52
2023/07/11 01:42:18;;;;;;;5.85;1.60;;;16.00;99.90;;;;;;5075112;28;20040;-51
2023/07/11 01:44:44;;;;;;;4.45;1.52;;;15.80;99.90;;;;;;5074485;28;20900;-52
2023/07/11 01:47:10;;;;;;;8.40;2.35;;;15.90;99.90;;;;;;5073994;28;20075;-53
2023/07/11 01:49:36;;;;;;;7.53;2.13;;;15.70;99.90;;;;;;5073207;28;20457;-52
2023/07/11 01:52:28;;;;;;;6.00;2.05;;;15.80;99.90;;;;;;5073156;28;20123;-50
2023/07/11 01:54:54;;;;;;;;;;;15.70;99.90;;;;;;5069403;28;20060;-52
2023/07/11 01:57:19;;;;;;;4.82;1.58;;;15.80;99.90;;;;;;5073369;28;19928;-53
2023/07/11 01:59:45;;;;;;;3.92;1.30;;;15.80;99.90;;;;;;5072966;28;20292;-52
2023/07/11 02:02:11;;;;;;;5.10;1.30;;;15.80;99.90;;;;;;5073747;28;20044;-51
2023/07/11 02:04:38;;;;;;;5.05;1.67;;;15.60;99.90;;;;;;5072323;28;20032;-52
2023/07/11 02:07:05;;;;;;;6.53;1.38;;;15.80;99.90;;;;;;5072818;28;20520;-52
2023/07/11 02:09:31;;;;;;;5.68;1.30;;;15.70;99.90;;;;;;5071922;28;20452;-51
2023/07/11 02:11:57;;;;;;;7.68;2.78;;;15.80;99.90;;;;;;5073459;28;20081;-50
2023/07/11 02:14:23;;;;;;;6.20;1.60;;;15.80;99.90;;;;;;5072717;28;20048;-52
2023/07/11 02:16:51;;;;;;;5.35;1.50;;;15.90;99.90;;;;;;5053606;28;20113;-52
2023/07/11 02:19:19;;;;;;;5.93;1.52;;;15.90;99.90;;;;;;5071891;28;20123;-51
2023/07/11 02:21:45;;;;;;;5.05;1.50;;;16.00;99.90;;;;;;5071236;28;20040;-52
2023/07/11 02:24:14;;;;;;;6.05;1.60;;;16.00;99.90;;;;;;5072206;28;20043;-51
2023/07/11 02:26:40;;;;;;;5.30;1.40;;;16.00;99.90;;;;;;5071751;28;20040;-48
2023/07/11 02:29:06;;;;;;;6.13;1.38;;;15.80;99.90;;;;;;5072279;28;20442;-49
2023/07/11 02:31:34;;;;;;;6.35;1.83;;;15.80;99.90;;;;;;5073213;28;20050;-48
2023/07/11 02:34:00;;;;;;;6.80;1.50;;;15.80;99.90;;;;;;5074125;28;20154;-51
2023/07/11 02:36:27;;;;;;;6.88;2.03;;;15.90;99.90;;;;;;5072908;28;20044;-47
2023/07/11 02:38:53;;;;;;;7.80;1.33;;;16.00;99.90;;;;;;5073291;28;20055;-50
2023/07/11 02:41:19;;;;;;;3.90;1.40;;;15.90;99.90;;;;;;5053144;28;20048;-49
2023/07/11 02:43:46;;;;;;;6.57;1.83;;;16.10;99.90;;;;;;5072761;28;20528;-46
2023/07/11 02:46:14;;;;;;;3.42;1.25;;;16.00;99.90;;;;;;5073389;28;20044;-47
2023/07/11 02:48:40;;;;;;;5.35;1.45;;;16.10;99.90;;;;;;5072114;28;20040;-49
2023/07/11 02:51:06;;;;;;;5.20;1.50;;;15.80;99.90;;;;;;5072806;28;20421;-51
2023/07/11 02:53:32;;;;;;;7.30;1.50;;;16.10;99.90;;;;;;5073347;28;20040;-46
2023/07/11 02:55:57;;;;;;;4.53;1.42;;;15.90;99.90;;;;;;5072379;28;20040;-51
2023/07/11 02:58:24;;;;;;;6.20;1.73;;;16.00;99.90;;;;;;5071506;28;20358;-46
2023/07/11 03:00:54;;;;;;;7.80;1.33;;;16.20;99.90;;;;;;5072699;28;20051;-50
2023/07/11 03:03:20;;;;;;;6.00;1.55;;;16.00;99.90;;;;;;5073030;28;20048;-52
2023/07/11 03:05:47;;;;;;;10.90;1.73;;;16.10;99.90;;;;;;5054887;28;20073;-47
2023/07/11 03:08:14;;;;;;;7.30;1.63;;;16.10;99.90;;;;;;5072755;28;20101;-49
2023/07/11 03:10:40;;;;;;;7.43;1.65;;;16.10;99.90;;;;;;5071901;28;20386;-48
2023/07/11 03:13:06;;;;;;;5.80;1.48;;;16.00;99.90;;;;;;5053957;28;20044;-49
2023/07/11 03:15:35;;;;;;;8.35;1.60;;;16.10;99.90;;;;;;5072824;28;20045;-47
2023/07/11 03:18:01;;;;;;;8.40;2.15;;;16.00;99.90;;;;;;5055242;28;20406;-50
2023/07/11 03:20:27;;;;;;;7.47;1.80;;;16.00;99.90;;;;;;5073224;28;20040;-49
2023/07/11 03:22:52;;;;;;;7.68;1.75;;;16.10;99.90;;;;;;5072524;28;20493;-50
2023/07/11 03:25:18;;;;;;;4.93;1.52;;;16.10;99.90;;;;;;5071809;28;20036;-50
2023/07/11 03:27:44;;;;;;;6.80;2.10;;;16.10;99.90;;;;;;5054908;28;20040;-48
2023/07/11 03:30:10;;;;;;;6.05;1.98;;;16.00;99.90;;;;;;5052703;28;20043;-50
2023/07/11 03:32:36;;;;;;;6.45;1.95;;;15.90;99.90;;;;;;5071892;28;20792;-51
2023/07/11 03:35:02;;;;;;;7.70;1.90;;;15.90;99.90;;;;;;5073179;28;20040;-50
2023/07/11 03:37:28;;;;;;;6.78;2.00;;;16.00;99.90;;;;;;5075153;28;20051;-52
2023/07/11 03:39:54;;;;;;;8.98;2.03;;;15.90;99.90;;;;;;5075758;28;20051;-48
2023/07/11 03:42:20;;;;;;;6.75;1.90;;;18.10;99.90;;;;;;5075463;28;20059;-48
2023/07/11 03:44:45;;;;;;;5.03;1.92;;;15.90;99.90;;;;;;5075394;28;20052;-48
2023/07/11 03:47:11;;;;;;;6.53;1.90;;;16.00;99.90;;;;;;5075409;28;20076;-50
2023/07/11 03:49:37;;;;;;;8.43;2.05;;;15.90;99.90;;;;;;5074688;28;20090;-50
2023/07/11 03:52:03;;;;;;;7.70;2.17;;;15.80;99.90;;;;;;5075417;28;20142;-47
2023/07/11 03:54:29;;;;;;;5.28;1.90;;;16.00;99.90;;;;;;5075264;28;20412;-49
2023/07/11 03:56:55;;;;;;;10.98;2.60;;;16.00;99.90;;;;;;5076819;28;20039;-50
2023/07/11 03:59:20;;;;;;;7.60;2.40;;;15.70;99.90;;;;;;5057986;28;20048;-49
2023/07/11 04:01:47;;;;;;;8.85;2.08;;;15.80;99.90;;;;;;5076108;28;20040;-51
2023/07/11 04:04:13;;;;;;;6.10;2.22;;;15.90;99.90;;;;;;5076612;28;20139;-49
2023/07/11 04:06:41;;;;;;;8.57;2.50;;;16.10;99.90;;;;;;5076880;28;20040;-51
2023/07/11 04:09:06;;;;;;;7.88;2.40;;;15.90;99.90;;;;;;5075466;28;20260;-51
2023/07/11 04:11:32;;;;;;;6.53;2.70;;;15.80;99.90;;;;;;5076469;28;20048;-51
2023/07/11 04:13:58;;;;;;;6.35;2.88;;;16.20;99.90;;;;;;5075267;28;20068;-50
2023/07/11 04:16:23;;;;;;;5.70;2.53;;;15.90;99.90;;;;;;5076791;28;20048;-49
2023/07/11 04:18:50;;;;;;;6.80;2.70;;;15.80;99.90;;;;;;5075677;28;20044;-48
2023/07/11 04:21:16;;;;;;;6.15;2.15;;;16.00;99.90;;;;;;5075118;28;20032;-48
2023/07/11 04:23:43;;;;;;;9.35;2.10;;;16.10;99.90;;;;;;5057222;28;20077;-51
2023/07/11 04:26:09;;;;;;;8.55;2.55;;;15.80;99.90;;;;;;5075007;28;20066;-51
2023/07/11 04:28:34;;;;;;;6.85;2.50;;;16.10;99.90;;;;;;5074170;28;20043;-51
2023/07/11 04:31:01;;;;;;;9.35;3.00;;;15.90;99.90;;;;;;5056403;28;20574;-51
2023/07/11 04:33:27;;;;;;;8.38;2.38;;;16.00;99.90;;;;;;5075957;28;20583;-49
2023/07/11 04:35:52;;;;;;;9.75;2.85;;;15.90;99.90;;;;;;5056916;28;20516;-49
2023/07/11 04:38:18;;;;;;;6.03;2.58;;;15.80;99.90;;;;;;5073998;28;20139;-50
2023/07/11 04:40:45;;;;;;;6.53;3.15;;;16.00;99.90;;;;;;5074442;28;20077;-48
2023/07/11 04:43:11;;;;;;;6.38;2.70;;;15.90;99.90;;;;;;5074727;28;20052;-48
2023/07/11 04:45:36;;;;;;;9.10;2.80;;;16.10;99.90;;;;;;5075043;28;20048;-51
2023/07/11 04:48:02;;;;;;;8.35;3.05;;;16.20;99.90;;;;;;5073100;28;20865;-47
2023/07/11 04:50:28;;;;;;;10.73;3.47;;;16.00;99.90;;;;;;5073762;28;20473;-49
2023/07/11 04:52:54;;;;;;;9.00;3.20;;;16.20;99.90;;;;;;5074680;28;20066;-51
2023/07/11 04:55:20;;;;;;;6.85;2.92;;;16.60;99.90;;;;;;5074811;28;20586;-52
2023/07/11 04:57:46;;;;;;;6.90;2.97;;;16.20;99.90;;;;;;5073198;28;20040;-51
2023/07/11 05:00:12;;;;;;;9.00;3.58;;;18.00;99.90;;;;;;5074420;28;20067;-52
2023/07/11 05:02:38;;;;;;;9.27;3.35;;;16.20;99.90;;;;;;5074554;28;20032;-49
2023/07/11 05:05:04;;;;;;;9.02;3.70;;;16.30;99.90;;;;;;5074331;28;20036;-50
2023/07/11 05:07:29;;;;;;;14.00;4.32;;;16.20;99.90;;;;;;5073635;28;20299;-50
2023/07/11 05:09:55;;;;;;;8.20;3.95;;;16.40;99.90;;;;;;5072841;28;20048;-52
2023/07/11 05:12:21;;;;;;;10.07;4.00;;;16.40;99.90;;;;;;5073892;28;20036;-49
2023/07/11 05:14:47;;;;;;;12.45;4.40;;;16.40;99.90;;;;;;5074659;28;20044;-49
2023/07/11 05:17:12;;;;;;;10.05;4.15;;;16.70;99.90;;;;;;5074662;28;20143;-53
2023/07/11 05:19:38;;;;;;;9.70;3.97;;;17.00;99.90;;;;;;5074199;28;20111;-52
2023/07/11 05:22:04;;;;;;;10.45;4.13;;;17.10;99.90;;;;;;5074401;28;20919;-52
2023/07/11 05:24:30;;;;;;;9.95;4.20;;;17.30;99.90;;;;;;5074289;28;20215;-50
2023/07/11 05:26:56;;;;;;;12.13;4.90;;;17.40;99.90;;;;;;5056180;28;20123;-51
2023/07/11 05:29:22;;;;;;;12.80;5.20;;;19.30;99.90;;;;;;5073968;28;20036;-47
2023/07/11 05:31:48;;;;;;;10.82;4.50;;;17.50;99.90;;;;;;5074105;28;20032;-52
2023/07/11 05:34:14;;;;;;;15.05;5.32;;;17.70;99.90;;;;;;5075292;28;20036;-49
2023/07/11 05:36:40;;;;;;;13.57;5.50;;;17.80;99.90;;;;;;5074605;28;20044;-48
2023/07/11 05:39:14;;;;;;;12.13;4.88;;;17.90;99.90;;;;;;5073358;28;20040;-49
2023/07/11 05:41:44;;;;;;;10.88;4.82;;;18.00;99.90;;;;;;5054449;28;20043;-51
2023/07/11 05:44:14;;;;;;;10.80;4.97;;;18.20;99.90;;;;;;5072578;28;20235;-50
2023/07/11 05:46:40;;;;;;;10.95;4.95;;;18.10;99.90;;;;;;5072647;28;20082;-51
2023/07/11 05:49:07;;;;;;;11.43;5.00;;;18.40;99.90;;;;;;5071987;28;20487;-51
2023/07/11 05:51:33;;;;;;;10.32;4.45;;;18.40;99.90;;;;;;5072567;28;20036;-53
2023/07/11 05:53:59;;;;;;;10.10;5.30;;;18.50;99.90;;;;;;5073581;28;20063;-52
2023/07/11 05:56:25;;;;;;;11.15;4.90;;;18.50;99.90;;;;;;5072730;28;20040;-52
2023/07/11 05:58:53;;;;;;;10.80;5.10;;;18.50;99.90;;;;;;5072056;28;20044;-50
2023/07/11 06:01:22;;;;;;;10.68;5.03;;;18.70;99.90;;;;;;5072483;28;20040;-53
2023/07/11 06:03:50;;;;;;;10.35;5.65;;;18.80;99.90;;;;;;5073078;28;20326;-53
2023/07/11 06:06:17;;;;;;;12.30;5.43;;;18.70;99.90;;;;;;5072843;28;20040;-52
2023/07/11 06:08:43;;;;;;;11.32;5.22;;;18.90;99.90;;;;;;5073092;28;20036;-53
2023/07/11 06:11:09;;;;;;;10.07;5.00;;;16.60;99.90;;;;;;5072717;28;20280;-50
2023/07/11 06:13:37;;;;;;;10.68;5.28;;;18.90;99.90;;;;;;5072208;28;20509;-52
2023/07/11 06:16:12;;;;;;;11.45;4.60;;;18.90;99.90;;;;;;5072763;28;20083;-51
2023/07/11 06:18:38;;;;;;;10.23;4.78;;;18.90;99.90;;;;;;5072359;28;20275;-52
2023/07/11 06:21:07;;;;;;;10.55;4.22;;;19.20;99.90;;;;;;5072656;28;20133;-52
2023/07/11 06:23:33;;;;;;;12.68;4.70;;;19.60;99.90;;;;;;5073493;28;20095;-50
2023/07/11 06:25:59;;;;;;;10.90;5.50;;;20.20;99.90;;;;;;5073345;28;20205;-52
2023/07/11 06:28:25;;;;;;;12.63;5.07;;;20.60;99.90;;;;;;5073008;28;20486;-53
2023/07/11 06:30:54;;;;;;;10.75;5.35;;;20.90;99.90;;;;;;5072147;28;20044;-51
2023/07/11 06:33:22;;;;;;;14.90;4.75;;;21.20;99.90;;;;;;5072614;28;20055;-52
2023/07/11 06:35:51;;;;;;;9.88;4.65;;;21.10;99.90;;;;;;5073377;28;20040;-49
2023/07/11 06:38:20;;;;;;;8.13;4.18;;;21.10;99.90;;;;;;5072928;28;20535;-54
2023/07/11 06:40:54;;;;;;;10.23;4.50;;;21.40;99.90;;;;;;5073739;28;20132;-55
2023/07/11 06:43:22;;;;;;;10.27;4.80;;;21.30;99.90;;;;;;5072126;28;20718;-56
2023/07/11 06:45:49;;;;;;;10.38;4.25;;;21.40;99.90;;;;;;5073572;28;20086;-55
2023/07/11 06:48:16;;;;;;;11.70;4.85;;;21.40;99.90;;;;;;5074093;28;20166;-55
2023/07/11 06:50:46;;;;;;;11.85;4.45;;;21.60;99.90;;;;;;5072946;28;20075;-55
2023/07/11 06:53:12;;;;;;;11.68;4.47;;;21.80;99.90;;;;;;5072968;28;20082;-56
2023/07/11 06:55:43;;;;;;;10.40;3.97;;;21.70;99.90;;;;;;5073959;28;20516;-56
2023/07/11 06:58:09;;;;;;;13.93;4.65;;;22.20;99.90;;;;;;5073339;28;20278;-56
2023/07/11 07:00:34;;;;;;;9.00;4.50;;;22.30;99.90;;;;;;5055756;28;20036;-56
2023/07/11 07:03:00;;;;;;;9.90;4.28;;;22.20;99.90;;;;;;5073299;28;20147;-55
2023/07/11 07:05:26;;;;;;;11.10;4.15;;;22.20;99.90;;;;;;5074881;28;20060;-55
2023/07/11 07:07:51;;;;;;;8.30;3.90;;;22.00;99.90;;;;;;5055199;28;20040;-55
2023/07/11 07:10:17;;;;;;;14.20;4.32;;;22.20;99.90;;;;;;5075690;28;20323;-54
2023/07/11 07:12:43;;;;;;;10.48;4.32;;;22.00;99.90;;;;;;5076978;28;20055;-55
2023/07/11 07:15:09;;;;;;;12.40;4.35;;;22.30;99.90;;;;;;5057666;28;20048;-55
2023/07/11 07:17:35;;;;;;;8.50;3.55;;;22.20;99.90;;;;;;5076577;28;20048;-56
2023/07/11 07:20:00;;;;;;;8.73;3.88;;;22.30;99.90;;;;;;5076229;28;20113;-55
2023/07/11 07:22:26;;;;;;;8.30;4.00;;;22.40;99.90;;;;;;5077396;28;20036;-56
2023/07/11 07:24:52;;;;;;;10.38;3.72;;;22.40;99.90;;;;;;5075405;28;20123;-56
2023/07/11 07:27:17;;;;;;;8.98;4.32;;;22.30;99.90;;;;;;5075971;28;20044;-55
2023/07/11 07:29:43;;;;;;;14.10;4.10;;;22.30;99.90;;;;;;5076249;28;20040;-55
2023/07/11 07:32:09;;;;;;;7.72;3.42;;;22.40;99.90;;;;;;5076156;28;20534;-56
2023/07/11 07:34:35;;;;;;;10.50;3.72;;;22.30;99.90;;;;;;5076521;28;20059;-56
2023/07/11 07:37:01;;;;;;;10.48;4.05;;;22.30;99.90;;;;;;5076018;28;20214;-55
2023/07/11 07:39:26;;;;;;;8.40;3.65;;;22.30;99.90;;;;;;5057627;28;20075;-55
2023/07/11 07:41:52;;;;;;;7.53;3.58;;;22.10;99.90;;;;;;5076438;28;20330;-56
2023/07/11 07:44:18;;;;;;;10.32;3.67;;;22.20;99.90;;;;;;5075592;28;20101;-55
2023/07/11 07:46:43;;;;;;;13.25;4.03;;;22.20;99.90;;;;;;5074993;28;20119;-55
2023/07/11 07:49:09;;;;;;;8.27;3.72;;;22.30;99.90;;;;;;5074711;28;20048;-56
2023/07/11 07:51:35;;;;;;;10.75;3.80;;;22.20;99.90;;;;;;5075688;28;20036;-55
2023/07/11 07:54:01;;;;;;;10.00;3.63;;;22.40;99.90;;;;;;5075236;28;20371;-55
2023/07/11 07:56:28;;;;;;;9.63;3.50;;;22.50;99.90;;;;;;5076199;28;20056;-55
2023/07/11 07:58:54;;;;;;;8.55;3.70;;;22.90;99.90;;;;;;5075761;28;20127;-56
2023/07/11 08:01:20;;;;;;;8.82;3.20;;;23.10;99.90;;;;;;5076161;28;20044;-56
2023/07/11 08:03:46;;;;;;;7.63;3.58;;;23.30;99.90;;;;;;5077409;28;20051;-56
2023/07/11 08:06:14;;;;;;;9.57;3.40;;;24.00;99.90;;;;;;5076642;28;20501;-56
2023/07/11 08:08:40;;;;;;;9.02;3.20;;;24.50;99.90;;;;;;5075668;28;20083;-56
2023/07/11 08:11:07;;;;;;;7.90;3.05;;;24.80;99.90;;;;;;5076409;28;20334;-57
2023/07/11 08:13:34;;;;;;;7.95;3.53;;;25.20;99.90;;;;;;5077377;28;20052;-56
2023/07/11 08:16:00;;;;;;;7.50;2.92;;;25.30;99.90;;;;;;5076756;28;20048;-55
2023/07/11 08:18:27;;;;;;;7.93;2.85;;;25.30;99.90;;;;;;5075170;28;20051;-57
2023/07/11 08:20:53;;;;;;;13.48;3.15;;;25.30;99.90;;;;;;5074616;28;20135;-56
2023/07/11 08:23:19;;;;;;;8.70;3.20;;;25.20;99.90;;;;;;5075714;28;20051;-55
2023/07/11 08:25:49;;;;;;;7.00;3.05;;;25.70;99.90;;;;;;5075343;28;20089;-56
2023/07/11 08:28:15;;;;;;;8.55;3.22;;;25.80;99.90;;;;;;5075407;28;20052;-56
2023/07/11 08:30:41;;;;;;;9.18;3.00;;;25.90;99.90;;;;;;5076095;28;20467;-56
2023/07/11 08:33:07;;;;;;;9.45;3.33;;;25.50;99.90;;;;;;5074561;28;20339;-55
2023/07/11 08:35:32;;;;;;;12.35;3.17;;;25.10;99.90;;;;;;5076123;28;20032;-55
2023/07/11 08:37:58;;;;;;;8.05;2.72;;;25.20;99.90;;;;;;5074541;28;20512;-55
2023/07/11 08:40:32;;;;;;;11.43;3.28;;;25.00;99.90;;;;;;5076224;28;20043;-54
2023/07/11 08:43:03;;;;;;;7.28;2.78;;;25.20;99.90;;;;;;5073988;28;20044;-56
2023/07/11 08:45:46;;;;;;;6.90;2.60;;;25.70;99.90;;;;;;5074419;28;20597;-56
2023/07/11 08:48:18;;;;;;;8.27;3.05;;;26.40;99.90;;;;;;5074479;28;20510;-55
2023/07/11 08:50:53;;;;;;;7.63;3.05;;;26.10;99.90;;;;;;5075416;28;20052;-56
2023/07/11 08:53:24;;;;;;;10.88;3.47;;;26.00;99.90;;;;;;5074535;28;20330;-56
2023/07/11 08:55:52;;;;;;;7.30;3.15;;;26.20;99.90;;;;;;5074099;28;20527;-56
2023/07/11 08:58:32;;;;;;;7.60;2.80;;;26.20;99.90;;;;;;5075381;28;20042;-54
2023/07/11 09:01:00;;;;;;;10.43;2.75;;;26.00;99.90;;;;;;5074067;28;20535;-56
2023/07/11 09:03:30;;;;;;;8.05;2.85;;;25.80;99.90;;;;;;5074054;28;20048;-56
2023/07/11 09:06:03;;;;;;;8.23;2.70;;;26.10;99.90;;;;;;5074952;28;20470;-57
2023/07/11 09:08:30;;;;;;;9.20;2.80;;;26.90;99.90;;;;;;5074340;28;20093;-57
2023/07/11 09:11:17;;;;;;;6.88;2.70;;;27.50;99.90;;;;;;5074851;28;21307;-56
2023/07/11 09:13:46;;;;;;;8.07;2.70;;;28.10;99.90;;;;;;5075257;28;20040;-57
2023/07/11 09:16:35;;;;;;;8.60;2.42;;;27.90;99.90;;;;;;5075523;28;20062;-57
2023/07/11 09:19:26;;;;;;;9.18;2.33;;;27.80;99.90;;;;;;5073658;28;20397;-58
2023/07/11 09:22:12;;;;;;;7.20;2.47;;;27.70;99.90;;;;;;5074583;28;20162;-57
2023/07/11 09:24:50;;;;;;;7.88;2.60;;;27.80;99.90;;;;;;5074339;28;22116;-56
2023/07/11 09:27:29;;;;;;;8.63;2.72;;;27.90;99.90;;;;;;5074490;28;20043;-57
2023/07/11 09:29:56;;;;;;;11.10;2.33;;;27.60;99.90;;;;;;5074760;28;20133;-57
2023/07/11 09:32:33;;;;;;;7.40;2.78;;;27.40;99.90;;;;;;5055018;28;20125;-56
2023/07/11 09:35:22;;;;;;;7.40;2.30;;;27.00;99.90;;;;;;5075695;28;20235;-56
2023/07/11 09:37:53;;;;;;;7.10;2.45;;;27.10;99.90;;;;;;5074940;28;20044;-56
2023/07/11 09:40:36;;;;;;;7.95;2.20;;;27.40;99.90;;;;;;5075085;28;20121;-57
2023/07/11 09:43:03;;;;;;;8.18;2.60;;;27.60;99.90;;;;;;5072596;28;20048;-56
2023/07/11 09:45:33;;;;;;;7.25;2.20;;;27.60;99.90;;;;;;5073233;28;20062;-56
2023/07/11 09:48:30;;;;;;;6.47;2.13;;;27.40;99.90;;;;;;5053799;28;20032;-56
2023/07/11 09:51:28;;;;;;;8.38;2.20;;;27.50;99.90;;;;;;5073813;28;20135;-56
2023/07/11 09:53:55;;;;;;;7.07;1.95;;;27.60;99.90;;;;;;5073180;28;20048;-55
2023/07/11 09:56:24;;;;;;;9.18;2.17;;;27.20;99.90;;;;;;5073248;28;20562;-56
2023/07/11 09:58:53;;;;;;;6.28;2.00;;;27.20;99.90;;;;;;5073639;28;20143;-56
2023/07/11 10:01:25;;;;;;;9.07;2.28;;;27.10;99.90;;;;;;5073313;28;20055;-56
2023/07/11 10:03:54;;;;;;;11.27;2.00;;;27.50;99.90;;;;;;5073336;28;21865;-55
2023/07/11 10:06:54;;;;;;;5.03;1.98;;;27.50;99.90;;;;;;5074301;28;20367;-53
2023/07/11 10:09:29;;;;;;;6.57;1.85;;;27.20;99.90;;;;;;5059191;28;20044;-55
2023/07/11 10:12:03;;;;;;;9.95;2.13;;;26.60;99.90;;;;;;5073136;28;20636;-55
2023/07/11 10:14:39;;;;;;;10.30;2.30;;;26.60;99.90;;;;;;5072960;28;20528;-55
2023/07/11 10:17:20;;;;;;;7.80;2.42;;;26.70;99.90;;;;;;5072219;28;20683;-54
2023/07/11 10:19:53;;;;;;;10.23;2.50;;;26.30;99.90;;;;;;5073179;28;20105;-54
2023/07/11 10:22:26;;;;;;;6.50;2.22;;;26.50;99.90;;;;;;5073427;28;20136;-55
2023/07/11 10:25:01;;;;;;;7.20;2.00;;;26.60;99.90;;;;;;5073018;28;20101;-54
2023/07/11 10:27:31;;;;;;;7.22;2.20;;;26.50;99.90;;;;;;5072891;28;20047;-53
2023/07/11 10:30:00;;;;;;;8.23;2.50;;;26.70;99.90;;;;;;5073109;28;20040;-55
2023/07/11 10:32:32;;;;;;;8.00;2.38;;;26.50;99.90;;;;;;5074202;28;20083;-54
2023/07/11 10:35:01;;;;;;;8.68;2.30;;;26.70;99.90;;;;;;5075263;28;20051;-55
2023/07/11 10:37:58;;;;;;;6.97;2.10;;;26.60;99.90;;;;;;5074628;28;20036;-54
2023/07/11 10:40:44;;;;;;;7.97;2.50;;;26.90;99.90;;;;;;5074146;28;20139;-55
2023/07/11 10:43:28;;;;;;;8.18;2.47;;;27.00;99.90;;;;;;5074065;28;20128;-54
2023/07/11 10:46:00;;;;;;;6.82;2.10;;;27.00;99.90;;;;;;5073320;28;20419;-55
2023/07/11 10:48:32;;;;;;;14.73;2.75;;;27.10;99.90;;;;;;5073019;28;20040;-55
2023/07/11 10:51:11;;;;;;;8.98;2.30;;;26.80;99.90;;;;;;5072975;28;20477;-53
2023/07/11 10:53:43;;;;;;;7.82;2.08;;;26.60;99.90;;;;;;5073137;28;20048;-54
2023/07/11 10:56:32;;;;;;;9.32;3.03;;;26.70;99.90;;;;;;5072714;28;20056;-54
2023/07/11 10:58:58;;;;;;;9.05;3.03;;;26.50;99.90;;;;;;5073147;28;20447;-54
2023/07/11 11:01:34;;;;;;;8.32;2.92;;;26.90;99.90;;;;;;5074495;28;20380;-54
2023/07/11 11:04:14;;;;;;;9.38;2.30;;;26.70;99.90;;;;;;5073284;28;20116;-52
2023/07/11 11:06:59;;;;;;;6.32;2.38;;;26.60;99.90;;;;;;5073073;28;20044;-54
2023/07/11 11:09:35;;;;;;;8.70;2.67;;;26.40;99.90;;;;;;5072392;28;20389;-53
2023/07/11 11:12:01;;;;;;;8.98;3.00;;;26.60;99.90;;;;;;5072717;28;20423;-51
2023/07/11 11:14:34;;;;;;;6.43;2.30;;;26.50;99.90;;;;;;5054273;28;20042;-50
2023/07/11 11:17:24;;;;;;;9.73;2.28;;;26.80;99.90;;;;;;5072526;28;20373;-51
2023/07/11 11:20:11;;;;;;;8.10;2.45;;;27.10;99.90;;;;;;5072455;28;20071;-56
2023/07/11 11:22:58;;;;;;;9.32;2.53;;;27.20;99.90;;;;;;5072929;28;20484;-54
2023/07/11 11:25:38;;;;;;;6.43;1.75;;;27.30;99.90;;;;;;5072166;28;20040;-54
2023/07/11 11:28:21;;;;;;;8.63;2.42;;;27.40;99.90;;;;;;5072239;28;20508;-54
2023/07/11 11:31:09;;;;;;;7.38;2.25;;;27.70;99.90;;;;;;5072482;28;20515;-54
2023/07/11 11:33:41;;;;;;;7.63;2.03;;;27.70;99.90;;;;;;5071670;28;20044;-55
2023/07/11 11:36:32;;;;;;;9.65;2.67;;;28.00;99.90;;;;;;5073051;28;20143;-55
2023/07/11 11:39:31;;;;;;;6.43;2.17;;;28.40;99.90;;;;;;5072238;28;20110;-54
2023/07/11 11:42:02;;;;;;;7.05;2.25;;;28.10;99.90;;;;;;5067008;28;20056;-53
2023/07/11 11:44:47;;;;;;;8.57;2.33;;;28.10;99.90;;;;;;5071790;28;20207;-53
2023/07/11 11:47:14;;;;;;;6.88;2.30;;;27.70;99.90;;;;;;5071903;28;20132;-54
2023/07/11 11:49:41;;;;;;;9.95;2.72;;;27.30;99.90;;;;;;5072271;28;20043;-55
2023/07/11 11:52:08;;;;;;;6.20;2.47;;;27.50;99.90;;;;;;5072682;28;20056;-54
2023/07/11 11:54:48;;;;;;;10.20;2.60;;;27.60;99.90;;;;;;5053261;28;20624;-54
2023/07/11 11:57:22;;;;;;;9.43;2.22;;;27.50;99.90;;;;;;5075917;28;20035;-53
2023/07/11 11:59:48;;;;;;;9.40;3.17;;;27.40;99.90;;;;;;5076702;28;20215;-53
2023/07/11 12:02:38;;;;;;;8.52;2.67;;;27.50;99.90;;;;;;5076959;28;20047;-53
2023/07/11 12:05:06;;;;;;;6.82;2.50;;;27.80;99.90;;;;;;5077912;28;20044;-53
2023/07/11 12:07:40;;;;;;;9.27;2.70;;;27.80;99.90;;;;;;5077959;28;20063;-55
2023/07/11 12:10:16;;;;;;;8.43;3.00;;;28.00;99.90;;;;;;5077042;28;20564;-54
2023/07/11 12:12:42;;;;;;;10.40;2.97;;;27.70;99.90;;;;;;5076331;28;20517;-53
2023/07/11 12:15:10;;;;;;;6.15;2.55;;;27.50;99.90;;;;;;5076404;28;20059;-55
2023/07/11 12:17:38;;;;;;;9.95;3.03;;;27.30;99.90;;;;;;5077676;28;20562;-54
2023/07/11 12:20:06;;;;;;;10.07;3.00;;;27.30;99.90;;;;;;5076522;28;20508;-54
2023/07/11 12:22:38;;;;;;;7.10;2.97;;;27.60;99.90;;;;;;5076097;28;20040;-54
2023/07/11 12:25:07;;;;;;;9.68;2.80;;;27.70;99.90;;;;;;5075665;28;20135;-54
2023/07/11 12:27:33;;;;;;;9.93;2.40;;;28.10;99.90;;;;;;5075960;28;20036;-55
2023/07/11 12:30:01;;;;;;;10.05;2.75;;;28.20;99.90;;;;;;5075999;28;20081;-54
2023/07/11 12:32:32;;;;;;;9.57;2.97;;;28.40;99.90;;;;;;5075436;28;20040;-55
2023/07/11 12:35:04;;;;;;;8.20;2.70;;;28.00;99.90;;;;;;5075867;28;20036;-54
2023/07/11 12:37:36;;;;;;;8.05;2.95;;;28.10;99.90;;;;;;5076239;28;20040;-55
2023/07/11 12:40:07;;;;;;;11.43;3.38;;;27.90;99.90;;;;;;5074243;28;20580;-55
2023/07/11 12:42:54;;;;;;;7.65;2.97;;;27.80;99.90;;;;;;5074625;28;20407;-54
2023/07/11 12:45:25;;;;;;;10.45;3.00;;;27.50;99.90;;;;;;5075269;28;20382;-54
2023/07/11 12:48:11;;;;;;;;;;;27.30;99.90;;;;;;5075952;28;20040;-54
2023/07/11 12:50:44;;;;;;;12.00;3.35;;;27.30;99.90;;;;;;5074504;28;19974;-54
2023/07/11 12:53:10;;;;;;;8.18;2.80;;;27.40;99.90;;;;;;5074084;28;20151;-55
2023/07/11 12:55:36;;;;;;;8.90;3.10;;;27.30;99.90;;;;;;5074412;28;20094;-54
2023/07/11 12:58:01;;;;;;;5.80;2.17;;;27.60;99.90;;;;;;5073636;28;20723;-54